Time;durP1;ratioP1;P1;durP2;ratioP2;P2;SDS_P1;SDS_P2;PMS_P1;PMS_P2;Temp;Humidity;BMP_temperature;BMP_pressure;BME280_temperature;BME280_humidity;BME280_pressure;Samples;Min_cycle;Max_cycle;Signal;HPM_P1;HPM_P2
2023/06/25 00:02:10;;;;;;;6.70;3.80;;;22.50;99.90;;;;;;4996926;28;20241;-71
2023/06/25 00:04:36;;;;;;;5.35;3.60;;;22.50;99.90;;;;;;4995808;28;20186;-72
2023/06/25 00:07:03;;;;;;;3.90;3.40;;;22.50;99.90;;;;;;4997163;28;20206;-71
2023/06/25 00:09:31;;;;;;;4.32;3.15;;;22.40;99.90;;;;;;4995817;28;20206;-71
2023/06/25 00:11:56;;;;;;;4.32;3.35;;;22.40;99.90;;;;;;4985124;28;20193;-72
2023/06/25 00:14:22;;;;;;;4.65;3.85;;;22.40;99.90;;;;;;5011518;28;20198;-71
2023/06/25 00:16:48;;;;;;;4.53;3.75;;;22.30;99.90;;;;;;4997203;28;20247;-75
2023/06/25 00:19:20;;;;;;;4.20;3.70;;;22.30;99.90;;;;;;4997122;28;20183;-75
2023/06/25 00:21:49;;;;;;;5.43;3.97;;;22.20;99.90;;;;;;5006902;28;20262;-76
2023/06/25 00:24:18;;;;;;;5.55;4.10;;;22.20;99.90;;;;;;5021047;28;20178;-76
2023/06/25 00:26:46;;;;;;;4.60;3.47;;;22.20;99.90;;;;;;5032823;28;20233;-76
2023/06/25 00:29:14;;;;;;;4.05;3.15;;;22.10;99.90;;;;;;5000480;28;20199;-75
2023/06/25 00:31:40;;;;;;;3.97;3.30;;;22.10;99.90;;;;;;4997051;28;20178;-77
2023/06/25 00:34:26;;;;;;;3.45;3.03;;;22.00;99.90;;;;;;4999949;28;20209;-74
2023/06/25 00:36:52;;;;;;;4.40;3.50;;;22.00;99.90;;;;;;5001295;28;20217;-76
2023/06/25 00:39:19;;;;;;;4.18;3.65;;;22.00;99.90;;;;;;5003153;28;20186;-75
2023/06/25 00:41:47;;;;;;;5.20;3.60;;;22.00;99.90;;;;;;4986381;28;20237;-75
2023/06/25 00:44:14;;;;;;;5.05;3.58;;;22.00;99.90;;;;;;4998023;28;20175;-75
2023/06/25 00:46:43;;;;;;;3.53;3.05;;;22.00;99.90;;;;;;4998593;28;20213;-76
2023/06/25 00:49:08;;;;;;;3.42;3.13;;;21.90;99.90;;;;;;5001364;28;20193;-74
2023/06/25 00:51:35;;;;;;;4.55;3.70;;;22.00;99.90;;;;;;4991279;28;20187;-75
2023/06/25 00:54:05;;;;;;;4.60;3.45;;;21.90;99.90;;;;;;4999266;28;20198;-77
2023/06/25 00:56:37;;;;;;;4.15;3.45;;;21.90;99.90;;;;;;5000643;28;20174;-77
2023/06/25 00:59:06;;;;;;;4.60;3.65;;;21.90;99.90;;;;;;4999436;28;20329;-75
2023/06/25 01:01:56;;;;;;;4.55;3.60;;;21.80;99.90;;;;;;4992677;28;20183;-77
2023/06/25 01:04:37;;;;;;;4.53;3.67;;;21.90;99.90;;;;;;4982260;28;20183;-76
2023/06/25 01:07:10;;;;;;;4.15;3.60;;;21.80;99.90;;;;;;5007843;28;20312;-77
2023/06/25 01:09:37;;;;;;;4.25;3.47;;;21.80;99.90;;;;;;4996490;28;20175;-75
2023/06/25 01:12:04;;;;;;;3.65;3.28;;;21.80;99.90;;;;;;4997035;28;20214;-74
2023/06/25 01:14:32;;;;;;;4.85;3.50;;;21.80;99.90;;;;;;5011879;28;20186;-75
2023/06/25 01:17:05;;;;;;;4.95;3.50;;;21.80;99.90;;;;;;4996387;28;20214;-76
2023/06/25 01:19:31;;;;;;;3.90;3.00;;;21.70;99.90;;;;;;5000252;28;20202;-75
2023/06/25 01:22:02;;;;;;;4.65;3.28;;;21.70;99.90;;;;;;5016254;28;20202;-76
2023/06/25 01:24:32;;;;;;;4.88;3.03;;;21.70;99.90;;;;;;5026566;28;20198;-77
2023/06/25 01:26:59;;;;;;;3.60;2.88;;;21.70;99.90;;;;;;5001516;28;20174;-76
2023/06/25 01:29:26;;;;;;;3.75;2.80;;;21.70;99.90;;;;;;5000125;28;20197;-73
2023/06/25 01:31:54;;;;;;;3.90;2.88;;;21.60;99.90;;;;;;4999596;28;20233;-75
2023/06/25 01:34:23;;;;;;;7.10;3.08;;;21.60;99.90;;;;;;5001439;28;20187;-76
2023/06/25 01:36:51;;;;;;;4.32;3.00;;;21.60;99.90;;;;;;4997208;28;20210;-76
2023/06/25 01:39:20;;;;;;;4.50;3.00;;;21.50;99.90;;;;;;4999293;28;20192;-75
2023/06/25 01:41:47;;;;;;;3.83;2.95;;;21.50;99.90;;;;;;5001811;28;20188;-76
2023/06/25 01:44:39;;;;;;;3.72;2.92;;;21.40;99.90;;;;;;4988198;28;20176;-74
2023/06/25 01:47:05;;;;;;;3.40;2.80;;;21.40;99.90;;;;;;5001259;28;20206;-76
2023/06/25 01:49:33;;;;;;;4.25;2.85;;;21.40;99.90;;;;;;4997611;28;20178;-76
2023/06/25 01:52:03;;;;;;;3.60;2.72;;;21.30;99.90;;;;;;5006250;28;20202;-76
2023/06/25 01:54:33;;;;;;;4.15;3.15;;;21.30;99.90;;;;;;4999159;28;20182;-77
2023/06/25 01:57:02;;;;;;;3.97;2.92;;;21.20;99.90;;;;;;4995311;28;20210;-77
2023/06/25 01:59:34;;;;;;;3.40;2.63;;;21.20;99.90;;;;;;4998641;28;20174;-77
2023/06/25 02:02:01;;;;;;;3.35;2.72;;;21.20;99.90;;;;;;4999307;28;20194;-76
2023/06/25 02:04:30;;;;;;;4.22;2.63;;;21.10;99.90;;;;;;4997369;28;20229;-77
2023/06/25 02:06:58;;;;;;;5.32;3.00;;;21.10;99.90;;;;;;5000154;28;20170;-75
2023/06/25 02:09:23;;;;;;;3.22;2.70;;;21.10;99.90;;;;;;4998729;28;20186;-74
2023/06/25 02:11:49;;;;;;;3.85;3.08;;;21.00;99.90;;;;;;4995036;28;20198;-76
2023/06/25 02:14:17;;;;;;;3.28;2.72;;;21.00;99.90;;;;;;4998833;28;20182;-74
2023/06/25 02:16:45;;;;;;;4.05;2.90;;;21.00;99.90;;;;;;4998157;28;20297;-75
2023/06/25 02:19:10;;;;;;;3.67;2.75;;;21.00;99.90;;;;;;4995770;28;20179;-75
2023/06/25 02:21:38;;;;;;;4.07;2.75;;;20.90;99.90;;;;;;4984725;28;20250;-73
2023/06/25 02:24:04;;;;;;;4.80;3.03;;;20.90;99.90;;;;;;4992962;28;20315;-75
2023/06/25 02:26:30;;;;;;;3.90;3.08;;;20.90;99.90;;;;;;4998633;28;20190;-73
2023/06/25 02:28:55;;;;;;;4.72;3.40;;;20.90;99.90;;;;;;4993269;28;20190;-75
2023/06/25 02:31:21;;;;;;;2.78;2.45;;;20.90;99.90;;;;;;4998574;28;20202;-74
2023/06/25 02:33:49;;;;;;;3.35;2.90;;;20.80;99.90;;;;;;4998399;28;20209;-74
2023/06/25 02:36:15;;;;;;;4.95;2.65;;;20.80;99.90;;;;;;4997847;28;20309;-74
2023/06/25 02:38:41;;;;;;;3.20;2.78;;;20.80;99.90;;;;;;4997665;28;20206;-74
2023/06/25 02:41:06;;;;;;;4.25;2.80;;;20.80;99.90;;;;;;4998773;28;20255;-74
2023/06/25 02:43:32;;;;;;;3.90;2.85;;;20.70;99.90;;;;;;4996661;28;20197;-75
2023/06/25 02:46:00;;;;;;;3.88;2.90;;;20.70;99.90;;;;;;4996180;28;20199;-75
2023/06/25 02:48:25;;;;;;;3.88;2.95;;;20.70;99.90;;;;;;4997388;28;20182;-76
2023/06/25 02:50:53;;;;;;;3.65;3.25;;;20.70;99.90;;;;;;4992190;28;20175;-76
2023/06/25 02:53:21;;;;;;;5.07;3.17;;;20.70;99.90;;;;;;5014996;28;20193;-75
2023/06/25 02:55:47;;;;;;;5.18;2.80;;;20.70;99.90;;;;;;4997577;28;20185;-76
2023/06/25 02:58:12;;;;;;;3.55;2.83;;;20.70;99.90;;;;;;4994714;28;20211;-76
2023/06/25 03:00:40;;;;;;;4.30;3.10;;;20.60;99.90;;;;;;5003704;28;20175;-76
2023/06/25 03:03:06;;;;;;;3.15;2.85;;;20.70;99.90;;;;;;4986691;28;20193;-75
2023/06/25 03:05:37;;;;;;;3.30;2.97;;;20.60;99.90;;;;;;4989147;28;20248;-76
2023/06/25 03:08:02;;;;;;;5.60;2.75;;;20.60;99.90;;;;;;4994763;28;20183;-75
2023/06/25 03:10:30;;;;;;;3.65;2.90;;;20.60;99.90;;;;;;5001681;28;20277;-76
2023/06/25 03:12:58;;;;;;;5.60;3.22;;;20.60;99.90;;;;;;4997714;28;20225;-75
2023/06/25 03:15:23;;;;;;;3.70;2.70;;;20.60;99.90;;;;;;4998236;28;20253;-76
2023/06/25 03:17:50;;;;;;;4.50;3.20;;;20.60;99.90;;;;;;4996910;28;20203;-76
2023/06/25 03:20:15;;;;;;;3.50;3.20;;;20.60;99.90;;;;;;4997902;28;20178;-76
2023/06/25 03:22:43;;;;;;;3.42;3.00;;;20.60;99.90;;;;;;4993819;28;20206;-75
2023/06/25 03:25:09;;;;;;;3.63;3.00;;;20.60;99.90;;;;;;5008454;28;20199;-75
2023/06/25 03:27:35;;;;;;;4.72;3.00;;;20.50;99.90;;;;;;4995378;28;20221;-76
2023/06/25 03:30:00;;;;;;;4.32;3.00;;;20.50;99.90;;;;;;4997372;28;20261;-76
2023/06/25 03:32:29;;;;;;;6.65;3.38;;;20.50;99.90;;;;;;4997084;28;20298;-73
2023/06/25 03:34:56;;;;;;;4.55;3.25;;;20.50;99.90;;;;;;4986538;28;20218;-75
2023/06/25 03:37:23;;;;;;;4.20;3.40;;;20.50;99.90;;;;;;5008193;28;20217;-74
2023/06/25 03:39:49;;;;;;;4.30;3.33;;;20.50;99.90;;;;;;4999571;28;20178;-76
2023/06/25 03:42:14;;;;;;;4.53;3.55;;;20.50;99.90;;;;;;4998361;28;20175;-74
2023/06/25 03:44:54;;;;;;;3.97;3.45;;;20.50;99.90;;;;;;4996987;28;20194;-75
2023/06/25 03:47:23;;;;;;;4.25;3.78;;;20.50;99.90;;;;;;4997683;28;20174;-74
2023/06/25 03:49:48;;;;;;;3.60;3.20;;;20.50;99.90;;;;;;4995208;28;20205;-76
2023/06/25 03:52:14;;;;;;;5.25;3.50;;;20.50;99.90;;;;;;4997129;28;20242;-75
2023/06/25 03:54:39;;;;;;;4.70;3.63;;;20.50;99.90;;;;;;4997223;28;20209;-76
2023/06/25 03:57:05;;;;;;;4.38;3.72;;;20.50;99.90;;;;;;4987962;28;20225;-76
2023/06/25 03:59:31;;;;;;;4.88;4.00;;;20.50;99.90;;;;;;5000425;28;20175;-75
2023/06/25 04:01:57;;;;;;;4.30;3.70;;;20.50;99.90;;;;;;5010550;28;20198;-76
2023/06/25 04:04:22;;;;;;;5.10;4.07;;;20.50;99.90;;;;;;5001294;28;20281;-75
2023/06/25 04:06:48;;;;;;;5.13;4.13;;;20.50;99.90;;;;;;5040782;28;20185;-75
2023/06/25 04:09:14;;;;;;;4.32;3.90;;;20.50;99.90;;;;;;5035639;28;20183;-76
2023/06/25 04:11:39;;;;;;;4.93;4.03;;;20.50;99.90;;;;;;5033421;28;20185;-76
2023/06/25 04:14:07;;;;;;;5.03;4.53;;;20.50;99.90;;;;;;4989016;28;20178;-76
2023/06/25 04:16:35;;;;;;;4.88;4.22;;;20.50;99.90;;;;;;5000493;28;20288;-76
2023/06/25 04:19:00;;;;;;;4.32;3.47;;;20.50;99.90;;;;;;5001441;28;20181;-76
2023/06/25 04:21:28;;;;;;;5.03;3.28;;;20.50;99.90;;;;;;5001057;28;20179;-73
2023/06/25 04:23:56;;;;;;;5.18;3.15;;;20.60;99.90;;;;;;5000107;28;20170;-75
2023/06/25 04:26:24;;;;;;;3.75;2.90;;;20.60;99.90;;;;;;4999357;28;20183;-76
2023/06/25 04:28:49;;;;;;;3.47;2.65;;;20.50;99.90;;;;;;4999533;28;20171;-76
2023/06/25 04:31:15;;;;;;;4.13;2.97;;;20.50;99.90;;;;;;5015290;28;20258;-76
2023/06/25 04:33:41;;;;;;;3.90;3.10;;;20.50;99.90;;;;;;5001063;28;20178;-76
2023/06/25 04:36:10;;;;;;;5.80;4.78;;;20.50;99.90;;;;;;4997871;28;20209;-75
2023/06/25 04:38:38;;;;;;;4.15;3.65;;;20.60;99.90;;;;;;4996778;28;20202;-76
2023/06/25 04:41:04;;;;;;;5.43;3.78;;;20.60;99.90;;;;;;4994947;28;20178;-75
2023/06/25 04:43:34;;;;;;;3.78;3.38;;;20.60;99.90;;;;;;4999880;28;20345;-75
2023/06/25 04:46:00;;;;;;;4.80;3.55;;;20.70;99.90;;;;;;5033318;28;20240;-75
2023/06/25 04:48:26;;;;;;;4.97;4.30;;;20.70;99.90;;;;;;5011323;28;20254;-76
2023/06/25 04:50:54;;;;;;;3.78;3.38;;;20.80;99.90;;;;;;5014124;28;20225;-76
2023/06/25 04:53:19;;;;;;;5.07;4.00;;;20.80;99.90;;;;;;4981549;28;20337;-76
2023/06/25 04:55:47;;;;;;;4.45;4.00;;;20.80;99.90;;;;;;4995912;28;20262;-76
2023/06/25 04:58:15;;;;;;;6.30;4.53;;;20.80;99.90;;;;;;5011349;28;20198;-75
2023/06/25 05:00:40;;;;;;;4.45;3.95;;;20.90;99.90;;;;;;5034572;28;20221;-75
2023/06/25 05:03:08;;;;;;;4.93;4.25;;;20.90;99.90;;;;;;5001932;28;20179;-75
2023/06/25 05:05:36;;;;;;;4.35;3.95;;;20.90;99.90;;;;;;5008578;28;20174;-76
2023/06/25 05:08:06;;;;;;;4.95;4.40;;;20.90;99.90;;;;;;5019053;28;20271;-75
2023/06/25 05:10:32;;;;;;;4.85;4.35;;;20.90;99.90;;;;;;4996781;28;20187;-76
2023/06/25 05:12:59;;;;;;;5.72;4.40;;;21.00;99.90;;;;;;4983317;28;20218;-75
2023/06/25 05:15:25;;;;;;;5.15;4.20;;;21.00;99.90;;;;;;5000294;28;20179;-74
2023/06/25 05:17:51;;;;;;;4.38;3.97;;;21.10;99.90;;;;;;5002548;28;20210;-75
2023/06/25 05:20:21;;;;;;;4.93;4.30;;;21.10;99.90;;;;;;4997100;28;20189;-75
2023/06/25 05:22:47;;;;;;;9.82;8.60;;;21.10;99.90;;;;;;5026123;28;20175;-75
2023/06/25 05:25:14;;;;;;;5.70;5.10;;;21.20;99.90;;;;;;5012151;28;20171;-76
2023/06/25 05:27:42;;;;;;;5.95;4.90;;;21.20;99.90;;;;;;5029576;28;20182;-76
2023/06/25 05:30:08;;;;;;;4.90;4.40;;;21.30;99.90;;;;;;4999251;28;20237;-76
2023/06/25 05:32:34;;;;;;;5.43;4.38;;;21.30;99.90;;;;;;4983517;28;20176;-76
2023/06/25 05:34:59;;;;;;;4.70;4.15;;;21.30;99.90;;;;;;4997704;28;20183;-77
2023/06/25 05:37:25;;;;;;;4.18;3.75;;;21.40;99.90;;;;;;5000528;28;20287;-74
2023/06/25 05:39:51;;;;;;;4.93;3.55;;;21.50;99.90;;;;;;5003327;28;20261;-75
2023/06/25 05:42:16;;;;;;;4.60;3.92;;;21.50;99.90;;;;;;5000451;28;20206;-76
2023/06/25 05:44:42;;;;;;;4.38;3.97;;;21.50;99.90;;;;;;5007806;28;20171;-76
2023/06/25 05:47:07;;;;;;;12.88;4.55;;;21.60;99.90;;;;;;5009769;28;20194;-75
2023/06/25 05:49:33;;;;;;;4.50;4.10;;;21.70;99.90;;;;;;5002817;28;20175;-75
2023/06/25 05:51:59;;;;;;;5.03;4.22;;;21.70;99.90;;;;;;5002951;28;20179;-72
2023/06/25 05:54:24;;;;;;;5.13;4.28;;;21.80;99.90;;;;;;5024652;28;20202;-73
2023/06/25 05:56:50;;;;;;;4.75;4.13;;;21.80;99.90;;;;;;5008216;28;20206;-73
2023/06/25 05:59:15;;;;;;;4.85;4.10;;;21.80;99.90;;;;;;5013727;28;20237;-76
2023/06/25 06:01:41;;;;;;;4.32;3.78;;;21.90;99.90;;;;;;5006123;28;20265;-75
2023/06/25 06:04:07;;;;;;;4.45;3.90;;;22.00;99.90;;;;;;5002896;28;20266;-76
2023/06/25 06:06:37;;;;;;;4.30;3.90;;;22.00;99.90;;;;;;5007532;28;20234;-76
2023/06/25 06:09:07;;;;;;;6.88;6.13;;;22.10;99.90;;;;;;5034117;28;20202;-75
2023/06/25 06:11:38;;;;;;;5.13;4.60;;;22.10;99.90;;;;;;4998063;28;20207;-75
2023/06/25 06:14:05;;;;;;;6.07;4.47;;;22.20;99.90;;;;;;5000363;28;20281;-75
2023/06/25 06:16:33;;;;;;;4.75;4.25;;;22.30;99.90;;;;;;5007062;28;20218;-75
2023/06/25 06:18:58;;;;;;;4.45;4.05;;;22.30;99.90;;;;;;5013663;28;20198;-78
2023/06/25 06:21:26;;;;;;;4.85;3.95;;;22.40;99.90;;;;;;5015308;28;20189;-76
2023/06/25 06:23:52;;;;;;;4.40;4.00;;;22.50;99.90;;;;;;5032021;28;20209;-74
2023/06/25 06:26:17;;;;;;;4.43;4.03;;;22.50;99.90;;;;;;5031209;28;20198;-73
2023/06/25 06:28:45;;;;;;;4.50;3.95;;;22.60;99.90;;;;;;4995120;28;20194;-73
2023/06/25 06:31:13;;;;;;;4.75;4.32;;;22.70;99.90;;;;;;5003609;28;20177;-76
2023/06/25 06:33:41;;;;;;;5.22;4.32;;;22.80;99.90;;;;;;4999975;28;20175;-75
2023/06/25 06:36:12;;;;;;;4.55;4.15;;;22.80;99.90;;;;;;5007767;28;20310;-74
2023/06/25 06:38:42;;;;;;;6.75;5.85;;;22.90;99.90;;;;;;4998623;28;20281;-79
2023/06/25 06:41:08;;;;;;;4.63;4.22;;;23.00;99.90;;;;;;4991024;28;20179;-71
2023/06/25 06:43:33;;;;;;;5.18;4.65;;;23.10;99.90;;;;;;4998464;28;20224;-71
2023/06/25 06:45:59;;;;;;;5.20;4.30;;;23.20;99.90;;;;;;4998828;28;20202;-77
2023/06/25 06:50:53;;;;;;;4.80;4.30;;;23.30;99.90;;;;;;5031578;28;20252;-71
2023/06/25 06:53:18;;;;;;;4.35;3.95;;;23.40;99.90;;;;;;5049391;28;20174;-79
2023/06/25 06:55:44;;;;;;;5.40;4.40;;;23.50;99.90;;;;;;5034258;28;20190;-77
2023/06/25 06:58:12;;;;;;;4.25;3.85;;;23.50;99.90;;;;;;5035701;28;20319;-80
2023/06/25 07:00:38;;;;;;;5.60;4.28;;;23.60;99.90;;;;;;5031584;28;20182;-78
2023/06/25 07:03:03;;;;;;;4.40;4.00;;;23.70;99.90;;;;;;5032194;28;20181;-79
2023/06/25 07:05:33;;;;;;;4.60;4.18;;;23.80;99.90;;;;;;5050840;28;20182;-70
2023/06/25 07:07:59;;;;;;;4.10;3.55;;;23.90;99.90;;;;;;5033962;28;20202;-71
2023/06/25 07:10:27;;;;;;;4.32;3.72;;;23.90;99.90;;;;;;5038624;28;20208;-70
2023/06/25 07:12:52;;;;;;;4.10;3.58;;;24.10;99.90;;;;;;5030942;28;20209;-71
2023/06/25 07:15:20;;;;;;;4.25;3.85;;;24.10;99.90;;;;;;5031683;28;20198;-70
2023/06/25 07:17:48;;;;;;;3.92;3.63;;;24.20;99.90;;;;;;5030392;28;20198;-70
2023/06/25 07:20:16;;;;;;;8.00;4.32;;;24.30;99.90;;;;;;5021007;28;20194;-71
2023/06/25 07:22:43;;;;;;;4.20;3.80;;;24.40;99.90;;;;;;5038349;28;20174;-70
2023/06/25 07:25:10;;;;;;;5.97;4.35;;;24.40;99.90;;;;;;5033506;28;20178;-70
2023/06/25 07:27:35;;;;;;;5.45;4.20;;;24.50;99.90;;;;;;5014708;28;20252;-71
2023/06/25 07:30:03;;;;;;;4.68;4.28;;;24.60;99.90;;;;;;5025317;28;20189;-70
2023/06/25 07:32:31;;;;;;;4.47;4.07;;;24.70;99.90;;;;;;5049734;28;20202;-70
2023/06/25 07:34:57;;;;;;;6.05;4.50;;;24.70;99.90;;;;;;5053949;28;20224;-70
2023/06/25 07:37:26;;;;;;;4.85;4.30;;;24.80;99.90;;;;;;5037987;28;20339;-70
2023/06/25 07:39:53;;;;;;;5.07;4.22;;;24.90;99.90;;;;;;5036757;28;20256;-70
2023/06/25 07:42:19;;;;;;;4.63;3.90;;;24.90;99.90;;;;;;5039518;28;20185;-69
2023/06/25 07:44:45;;;;;;;4.07;3.70;;;25.00;99.90;;;;;;5035574;28;20174;-70
2023/06/25 07:47:11;;;;;;;4.85;4.20;;;25.10;99.90;;;;;;5024095;28;20189;-70
2023/06/25 07:49:38;;;;;;;4.72;3.95;;;25.20;99.90;;;;;;5033408;28;20229;-71
2023/06/25 07:52:04;;;;;;;4.40;4.00;;;25.20;99.90;;;;;;5022984;28;20209;-69
2023/06/25 07:54:32;;;;;;;4.45;4.03;;;25.30;99.90;;;;;;5054489;28;20205;-69
2023/06/25 07:56:58;;;;;;;4.53;3.80;;;25.40;99.90;;;;;;5053462;28;20295;-70
2023/06/25 07:59:26;;;;;;;4.30;3.90;;;25.40;99.90;;;;;;5054006;28;20224;-67
2023/06/25 08:01:51;;;;;;;4.68;3.97;;;25.50;99.90;;;;;;5043341;28;20173;-71
2023/06/25 08:04:19;;;;;;;4.38;3.97;;;25.60;99.90;;;;;;5039170;28;20225;-69
2023/06/25 08:06:48;;;;;;;4.70;3.80;;;25.70;99.90;;;;;;5020672;28;20171;-69
2023/06/25 08:09:14;;;;;;;4.05;3.65;;;25.70;99.90;;;;;;5017995;28;20316;-71
2023/06/25 08:11:40;;;;;;;4.25;3.85;;;25.80;99.90;;;;;;5045378;28;20170;-70
2023/06/25 08:14:05;;;;;;;3.88;3.58;;;25.90;99.90;;;;;;5052113;28;20224;-70
2023/06/25 08:16:31;;;;;;;4.32;3.67;;;26.00;99.90;;;;;;5054150;28;20177;-72
2023/06/25 08:18:57;;;;;;;4.03;3.63;;;26.10;99.90;;;;;;5045545;28;20217;-70
2023/06/25 08:21:23;;;;;;;4.00;3.65;;;26.20;99.90;;;;;;5020052;28;20201;-70
2023/06/25 08:23:48;;;;;;;3.72;3.33;;;26.20;99.90;;;;;;5022918;28;20251;-70
2023/06/25 08:26:15;;;;;;;3.70;3.38;;;26.30;99.90;;;;;;5040361;28;20175;-71
2023/06/25 08:28:42;;;;;;;3.78;3.40;;;26.40;99.90;;;;;;5048399;28;20420;-71
2023/06/25 08:31:08;;;;;;;4.75;4.10;;;26.50;99.90;;;;;;5036943;28;20186;-72
2023/06/25 08:33:36;;;;;;;4.10;3.70;;;26.60;99.90;;;;;;5049257;28;20182;-72
2023/06/25 08:36:02;;;;;;;3.97;3.58;;;26.70;99.90;;;;;;5018680;28;20285;-69
2023/06/25 08:38:28;;;;;;;4.07;3.67;;;26.70;99.90;;;;;;5052796;28;20289;-71
2023/06/25 08:40:57;;;;;;;5.18;3.63;;;26.80;99.90;;;;;;5054721;28;20178;-73
2023/06/25 08:43:22;;;;;;;5.53;3.20;;;26.90;99.90;;;;;;5037794;28;20170;-71
2023/06/25 08:45:48;;;;;;;4.85;3.70;;;27.00;99.90;;;;;;5035802;28;20212;-71
2023/06/25 08:48:16;;;;;;;4.15;3.75;;;27.10;99.90;;;;;;5037019;28;20320;-73
2023/06/25 08:50:48;;;;;;;5.47;3.70;;;27.20;99.90;;;;;;5036518;28;20194;-72
2023/06/25 08:53:13;;;;;;;3.92;3.53;;;27.20;99.90;;;;;;5052511;28;20170;-71
2023/06/25 08:55:41;;;;;;;3.88;3.53;;;27.30;99.90;;;;;;5054205;28;20235;-70
2023/06/25 08:58:07;;;;;;;4.20;3.80;;;27.40;99.90;;;;;;5050043;28;20189;-69
2023/06/25 09:00:33;;;;;;;4.30;3.80;;;27.40;99.90;;;;;;5054561;28;20169;-69
2023/06/25 09:03:06;;;;;;;3.85;3.55;;;27.50;99.90;;;;;;5053190;28;20189;-70
2023/06/25 09:05:34;;;;;;;4.60;3.92;;;27.60;99.90;;;;;;5042176;28;20183;-69
2023/06/25 09:08:00;;;;;;;4.18;3.78;;;27.70;99.90;;;;;;5030886;28;20268;-70
2023/06/25 09:10:31;;;;;;;3.92;3.50;;;27.80;99.90;;;;;;5036150;28;20189;-70
2023/06/25 09:12:59;;;;;;;3.90;3.60;;;27.90;99.90;;;;;;5045061;28;20193;-70
2023/06/25 09:15:30;;;;;;;4.10;3.55;;;27.90;99.90;;;;;;5053242;28;20174;-71
2023/06/25 09:17:57;;;;;;;4.50;3.50;;;28.00;99.90;;;;;;5039173;28;20197;-68
2023/06/25 09:20:23;;;;;;;3.60;3.30;;;28.10;99.90;;;;;;5036692;28;20204;-69
2023/06/25 09:22:55;;;;;;;3.63;3.33;;;28.20;99.90;;;;;;5047805;28;20218;-67
2023/06/25 09:25:28;;;;;;;4.60;3.90;;;28.30;99.90;;;;;;5055147;28;20185;-69
2023/06/25 09:27:58;;;;;;;3.60;3.30;;;28.30;99.90;;;;;;5038252;28;20260;-69
2023/06/25 09:30:24;;;;;;;4.30;3.08;;;28.40;99.90;;;;;;5051958;28;20207;-68
2023/06/25 09:32:53;;;;;;;4.18;3.67;;;28.50;99.90;;;;;;5052763;28;20193;-69
2023/06/25 09:35:25;;;;;;;4.05;3.65;;;28.60;99.90;;;;;;5052112;28;20262;-68
2023/06/25 09:37:53;;;;;;;5.55;3.85;;;28.70;99.90;;;;;;5052906;28;20193;-69
2023/06/25 09:40:19;;;;;;;8.48;3.80;;;28.80;99.90;;;;;;5060512;28;20218;-69
2023/06/25 09:42:48;;;;;;;3.80;3.50;;;28.80;99.90;;;;;;5016047;28;20189;-69
2023/06/25 09:45:15;;;;;;;3.70;3.40;;;28.90;99.90;;;;;;5048420;28;20429;-69
2023/06/25 09:47:43;;;;;;;3.50;3.20;;;29.00;99.90;;;;;;5050864;28;20204;-69
2023/06/25 09:50:21;;;;;;;3.40;3.10;;;29.00;99.90;;;;;;5052091;28;20198;-69
2023/06/25 09:52:55;;;;;;;3.80;3.17;;;29.10;99.90;;;;;;5063411;28;20200;-70
2023/06/25 09:55:21;;;;;;;4.38;3.35;;;29.20;99.90;;;;;;5055706;28;20179;-69
2023/06/25 09:57:48;;;;;;;4.07;3.15;;;29.30;99.90;;;;;;5039265;28;20186;-70
2023/06/25 10:00:16;;;;;;;4.18;3.50;;;29.40;99.90;;;;;;5051215;28;20223;-69
2023/06/25 10:02:44;;;;;;;3.58;3.28;;;29.40;99.90;;;;;;5051520;28;20189;-70
2023/06/25 10:05:10;;;;;;;3.67;3.38;;;29.50;99.90;;;;;;5035011;28;20312;-70
2023/06/25 10:07:36;;;;;;;3.78;3.42;;;29.60;99.90;;;;;;5034043;28;20268;-70
2023/06/25 10:10:02;;;;;;;3.90;3.60;;;29.70;99.90;;;;;;5051545;28;20213;-70
2023/06/25 10:12:32;;;;;;;3.75;3.35;;;29.70;99.90;;;;;;5035458;28;20201;-70
2023/06/25 10:15:01;;;;;;;4.82;4.35;;;29.80;99.90;;;;;;5030558;28;20239;-70
2023/06/25 10:17:27;;;;;;;3.95;3.55;;;29.90;99.90;;;;;;5033356;28;20236;-69
2023/06/25 10:19:55;;;;;;;3.85;3.28;;;30.00;99.90;;;;;;5031135;28;20322;-70
2023/06/25 10:22:23;;;;;;;3.30;3.00;;;30.00;99.80;;;;;;5032779;28;20175;-70
2023/06/25 10:24:52;;;;;;;3.35;3.05;;;30.20;99.90;;;;;;5025680;28;20197;-70
2023/06/25 10:27:23;;;;;;;3.30;3.00;;;30.20;99.90;;;;;;5035581;28;20177;-69
2023/06/25 10:29:51;;;;;;;3.22;2.90;;;30.30;99.90;;;;;;5030842;28;20181;-69
2023/06/25 10:32:21;;;;;;;4.57;3.40;;;30.40;99.90;;;;;;5032303;28;20170;-70
2023/06/25 10:35:00;;;;;;;4.13;3.67;;;30.60;99.00;;;;;;5034367;28;20215;-70
2023/06/25 10:37:46;;;;;;;3.50;3.20;;;30.70;98.50;;;;;;5034502;28;20207;-70
2023/06/25 10:40:15;;;;;;;3.85;3.45;;;30.80;96.10;;;;;;5051077;28;20200;-70
2023/06/25 10:42:41;;;;;;;3.90;3.40;;;30.90;98.70;;;;;;5034666;28;20174;-70
2023/06/25 10:45:07;;;;;;;3.53;3.10;;;31.00;99.40;;;;;;5050824;28;20277;-70
2023/06/25 10:47:35;;;;;;;3.50;3.20;;;31.20;99.20;;;;;;5034320;28;20182;-70
2023/06/25 10:50:06;;;;;;;3.90;3.55;;;31.40;98.20;;;;;;5039121;28;20279;-69
2023/06/25 10:52:45;;;;;;;3.70;3.40;;;31.60;97.30;;;;;;5027278;28;20186;-69
2023/06/25 10:55:12;;;;;;;3.85;3.28;;;31.80;95.50;;;;;;5034383;28;20381;-69
2023/06/25 10:57:38;;;;;;;7.13;3.35;;;32.00;97.00;;;;;;5037479;28;20210;-70
2023/06/25 11:00:04;;;;;;;5.07;4.55;;;32.10;96.70;;;;;;5045304;28;20272;-70
2023/06/25 11:02:30;;;;;;;4.50;4.10;;;32.30;95.70;;;;;;5023240;28;20297;-71
2023/06/25 11:05:02;;;;;;;4.75;4.13;;;32.40;95.90;;;;;;5038631;28;20265;-70
2023/06/25 11:07:31;;;;;;;3.38;3.05;;;32.60;94.20;;;;;;5023466;28;20276;-69
2023/06/25 11:09:58;;;;;;;3.17;2.78;;;32.70;95.50;;;;;;5047405;28;20173;-70
2023/06/25 11:12:29;;;;;;;3.30;3.00;;;32.90;94.30;;;;;;5030616;28;20169;-70
2023/06/25 11:15:04;;;;;;;3.85;3.50;;;33.00;92.90;;;;;;5046314;28;20202;-69
2023/06/25 11:17:29;;;;;;;3.42;3.13;;;33.10;92.00;;;;;;5040332;28;20254;-70
2023/06/25 11:19:57;;;;;;;2.92;2.50;;;33.30;93.60;;;;;;5035553;28;20206;-69
2023/06/25 11:22:28;;;;;;;3.10;2.80;;;33.40;93.40;;;;;;5051010;28;20205;-70
2023/06/25 11:24:56;;;;;;;4.13;3.75;;;33.50;93.00;;;;;;5030808;28;20208;-69
2023/06/25 11:27:28;;;;;;;3.45;2.95;;;33.60;92.50;;;;;;5034289;28;20219;-69
2023/06/25 11:29:54;;;;;;;2.85;2.65;;;33.70;88.60;;;;;;5033378;28;20181;-69
2023/06/25 11:32:24;;;;;;;2.72;2.53;;;33.80;91.00;;;;;;5029879;28;20201;-69
2023/06/25 11:34:50;;;;;;;2.60;2.40;;;33.80;88.80;;;;;;5038454;28;20274;-70
2023/06/25 11:37:18;;;;;;;3.30;3.00;;;33.90;88.90;;;;;;5041261;28;20205;-69
2023/06/25 11:39:44;;;;;;;3.00;2.58;;;34.00;89.40;;;;;;5030111;28;20174;-69
2023/06/25 11:42:25;;;;;;;2.50;2.30;;;34.10;87.80;;;;;;5017747;28;20177;-69
2023/06/25 11:44:59;;;;;;;3.05;2.75;;;34.10;83.10;;;;;;5049883;28;20181;-69
2023/06/25 11:47:25;;;;;;;2.83;2.63;;;34.10;83.00;;;;;;5048493;28;20212;-70
2023/06/25 11:49:58;;;;;;;2.90;2.60;;;34.10;86.40;;;;;;5030331;28;20194;-69
2023/06/25 11:52:24;;;;;;;3.10;2.80;;;34.10;81.20;;;;;;5021477;28;20196;-69
2023/06/25 11:54:49;;;;;;;2.53;2.33;;;34.20;85.10;;;;;;5035645;28;20186;-70
2023/06/25 11:57:16;;;;;;;3.15;2.85;;;34.30;84.10;;;;;;5035166;28;20240;-69
2023/06/25 11:59:43;;;;;;;3.42;2.80;;;34.30;80.50;;;;;;5030997;28;20186;-68
2023/06/25 12:02:12;;;;;;;3.17;2.35;;;34.20;78.30;;;;;;5050182;28;20208;-67
2023/06/25 12:04:40;;;;;;;2.53;2.33;;;34.20;76.70;;;;;;5047458;28;20200;-68
2023/06/25 12:07:08;;;;;;;2.92;2.63;;;34.10;78.20;;;;;;5048695;28;20170;-67
2023/06/25 12:09:36;;;;;;;3.30;2.92;;;34.20;78.30;;;;;;5050322;28;20261;-68
2023/06/25 12:12:04;;;;;;;2.95;2.67;;;34.20;77.30;;;;;;5046810;28;20229;-68
2023/06/25 12:14:30;;;;;;;2.67;2.47;;;34.20;75.60;;;;;;5046599;28;20257;-68
2023/06/25 12:16:56;;;;;;;2.75;2.55;;;34.20;76.00;;;;;;5049838;28;20470;-67
2023/06/25 12:19:22;;;;;;;2.75;2.42;;;34.30;76.60;;;;;;5050141;28;20271;-69
2023/06/25 12:21:50;;;;;;;2.67;2.47;;;34.40;75.60;;;;;;5053661;28;20177;-68
2023/06/25 12:24:15;;;;;;;2.70;2.45;;;34.40;74.60;;;;;;5054406;28;20169;-69
2023/06/25 12:26:41;;;;;;;2.90;2.50;;;34.60;75.20;;;;;;5054313;28;20173;-68
2023/06/25 12:29:07;;;;;;;2.58;2.38;;;34.70;73.90;;;;;;5054259;28;20229;-69
2023/06/25 12:31:32;;;;;;;2.80;2.60;;;34.80;74.50;;;;;;5054012;28;20166;-66
2023/06/25 12:33:58;;;;;;;2.50;2.30;;;34.90;75.10;;;;;;5061992;28;20169;-66
2023/06/25 12:36:23;;;;;;;2.67;2.47;;;35.00;73.80;;;;;;5037352;28;20269;-68
2023/06/25 12:38:52;;;;;;;3.13;2.90;;;35.20;74.10;;;;;;5035656;28;20239;-69
2023/06/25 12:41:20;;;;;;;3.20;2.90;;;35.30;70.80;;;;;;5047865;28;20208;-68
2023/06/25 12:43:48;;;;;;;2.60;2.40;;;35.50;68.70;;;;;;5031665;28;20206;-68
2023/06/25 12:46:14;;;;;;;2.83;2.50;;;35.60;68.30;;;;;;5053555;28;20185;-71
2023/06/25 12:48:39;;;;;;;2.55;2.35;;;35.60;66.50;;;;;;5053151;28;20181;-71
2023/06/25 12:51:07;;;;;;;2.67;2.47;;;35.70;66.00;;;;;;5048819;28;20186;-70
2023/06/25 12:53:33;;;;;;;2.50;2.30;;;35.60;66.40;;;;;;5029732;28;20190;-71